createdAt,value
2022-07-29T03:48:22.887Z,100445.03
2022-07-29T03:51:33.965Z,100445.03
2022-07-29T03:54:36.599Z,100459.69
2022-07-29T03:57:40.573Z,100455.47
2022-07-29T04:00:44.134Z,100463.59
2022-07-29T04:03:47.097Z,100454.84
2022-07-29T04:06:49.378Z,100459.56
2022-07-29T04:09:51.766Z,100463.41
2022-07-29T04:12:54.006Z,100464.72
2022-07-29T04:15:56.618Z,100467.56
2022-07-29T04:18:58.885Z,100462.22
2022-07-29T04:22:02.159Z,100468.50
2022-07-29T04:25:04.679Z,100458.31
2022-07-29T04:28:08.000Z,100455.56
2022-07-29T04:31:10.994Z,100464.91
2022-07-29T04:34:13.913Z,100465.03
2022-07-29T04:37:16.247Z,100458.84
2022-07-29T04:40:18.685Z,100457.63
2022-07-29T04:43:23.236Z,100459.25
2022-07-29T04:46:25.841Z,100462.44
2022-07-29T04:49:29.285Z,100465.91
2022-07-29T04:52:31.769Z,100463.06
2022-07-29T04:55:33.938Z,100461.94
2022-07-29T04:58:36.921Z,100464.41
2022-07-29T05:01:39.122Z,100461.94
2022-07-29T05:04:41.499Z,100467.13
2022-07-29T05:07:43.588Z,100464.06
2022-07-29T05:10:46.115Z,100470.00
2022-07-29T05:13:48.182Z,100473.19
2022-07-29T05:16:52.113Z,100471.66
2022-07-29T05:19:54.286Z,100474.00
2022-07-29T05:22:57.946Z,100468.59
2022-07-29T05:26:00.087Z,100476.47
2022-07-29T05:29:02.418Z,100471.09
2022-07-29T05:32:05.055Z,100467.37
2022-07-29T05:35:07.832Z,100471.37
2022-07-29T05:38:09.934Z,100470.63
2022-07-29T05:41:12.537Z,100466.81
2022-07-29T05:44:15.086Z,100464.56
2022-07-29T05:47:17.741Z,100467.72
2022-07-29T05:50:21.265Z,100478.72
2022-07-29T05:53:23.641Z,100470.66
2022-07-29T05:56:25.893Z,100471.84
2022-07-29T05:59:30.446Z,100475.88
2022-07-29T06:02:32.886Z,100475.13
2022-07-29T06:05:35.224Z,100477.94
2022-07-29T06:08:37.896Z,100487.03
2022-07-29T06:11:40.498Z,100481.88
2022-07-29T06:14:42.603Z,100483.44
2022-07-29T06:17:59.857Z,100479.12
2022-07-29T06:21:09.570Z,100484.59
2022-07-29T06:24:13.832Z,100485.78
2022-07-29T06:27:17.227Z,100487.00
2022-07-29T06:30:19.575Z,100485.16
2022-07-29T06:33:21.693Z,100487.19
2022-07-29T06:36:25.111Z,100490.34
2022-07-29T06:39:27.261Z,100495.47
2022-07-29T06:42:29.593Z,100493.12
2022-07-29T06:45:34.978Z,100498.56
2022-07-29T06:48:38.089Z,100489.53
2022-07-29T06:51:40.285Z,100497.09
2022-07-29T06:54:48.855Z,100495.53
2022-07-29T06:57:51.352Z,100497.53
2022-07-29T07:00:54.286Z,100488.91
2022-07-29T07:03:57.073Z,100485.75
2022-07-29T07:07:00.467Z,100488.13
2022-07-29T07:10:02.667Z,100492.47
2022-07-29T07:13:05.558Z,100492.09
2022-07-29T07:16:07.999Z,100494.87
2022-07-29T07:19:10.398Z,100489.72
2022-07-29T07:22:12.458Z,100490.91
2022-07-29T07:25:14.936Z,100484.22
2022-07-29T07:28:17.035Z,100481.47
2022-07-29T07:31:19.468Z,100486.19
2022-07-29T07:34:29.310Z,100484.63
2022-07-29T07:37:32.574Z,100474.81
2022-07-29T07:40:34.702Z,100478.75
2022-07-29T07:43:37.090Z,100478.31
2022-07-29T07:46:39.168Z,100469.25
2022-07-29T07:49:42.165Z,100479.84
2022-07-29T07:52:49.155Z,100479.06
2022-07-29T07:59:13.576Z,100479.44
2022-07-29T08:02:16.111Z,100475.47
2022-07-29T08:05:19.005Z,100479.81
2022-07-29T08:08:21.403Z,100468.38
2022-07-29T08:11:23.829Z,100464.84
2022-07-29T08:14:26.269Z,100468.81
2022-07-29T08:17:28.908Z,100473.09
2022-07-29T08:20:32.978Z,100472.28
2022-07-29T08:23:51.473Z,100467.56
2022-07-29T08:26:53.675Z,100467.09
2022-07-29T08:29:56.812Z,100459.62
2022-07-29T08:32:59.531Z,100465.09
2022-07-29T08:36:01.912Z,100459.59
2022-07-29T08:39:04.420Z,100462.38
2022-07-29T08:42:06.905Z,100456.50
2022-07-29T08:45:09.634Z,100453.75
2022-07-29T08:48:16.089Z,100460.09
2022-07-29T08:51:20.138Z,100459.25
2022-07-29T08:54:24.913Z,100448.53
2022-07-29T08:57:27.893Z,100446.53
2022-07-29T09:00:30.786Z,100444.09
2022-07-29T09:03:35.448Z,100444.50
2022-07-29T09:06:40.187Z,100438.56
2022-07-29T09:09:43.760Z,100438.94
2022-07-29T09:12:46.548Z,100447.22
2022-07-29T09:15:48.655Z,100445.25
2022-07-29T09:18:51.091Z,100439.59
2022-07-29T09:22:00.319Z,100436.75
2022-07-29T09:25:02.902Z,100432.00
2022-07-29T09:28:15.975Z,100431.06
2022-07-29T09:31:18.359Z,100434.16
2022-07-29T09:34:29.356Z,100432.12
2022-07-29T09:37:31.747Z,100425.75
2022-07-29T09:40:33.849Z,100420.63
2022-07-29T09:43:37.838Z,100413.50
2022-07-29T09:46:40.033Z,100412.28
2022-07-29T09:49:55.730Z,100409.06
2022-07-29T09:52:57.818Z,100408.66
2022-07-29T09:56:00.421Z,100396.75
2022-07-29T09:59:09.855Z,100400.19
2022-07-29T10:02:16.724Z,100398.12
2022-07-29T10:05:36.587Z,100393.75
2022-07-29T10:08:39.197Z,100388.91
2022-07-29T10:11:49.243Z,100393.25
2022-07-29T10:14:59.379Z,100404.75
2022-07-29T10:18:01.726Z,100396.03
2022-07-29T10:21:03.969Z,100391.03
2022-07-29T10:24:07.441Z,100388.66
2022-07-29T10:27:17.222Z,100381.03
2022-07-29T10:30:21.090Z,100381.81
2022-07-29T10:33:56.605Z,100383.25
2022-07-29T10:37:13.701Z,100374.16
2022-07-29T10:40:55.057Z,100371.69
2022-07-29T10:44:04.567Z,100378.28
2022-07-29T10:47:06.965Z,100375.72
2022-07-29T10:50:12.797Z,100365.66
2022-07-29T10:53:19.643Z,100363.56
2022-07-29T10:56:37.106Z,100360.69
2022-07-29T10:59:41.167Z,100359.37
2022-07-29T11:02:45.063Z,100353.44
2022-07-29T11:05:56.478Z,100354.50
2022-07-29T11:09:25.567Z,100344.00
2022-07-29T11:12:36.750Z,100350.47
2022-07-29T11:16:08.345Z,100349.88
2022-07-29T11:19:13.751Z,100342.37
2022-07-29T11:22:36.833Z,100340.44
2022-07-29T11:25:50.629Z,100337.12
2022-07-29T11:29:19.681Z,100337.38
2022-07-29T11:32:29.173Z,100333.53
2022-07-29T11:35:38.280Z,100321.75
2022-07-29T11:38:42.437Z,100315.41
2022-07-29T11:41:44.774Z,100309.03
2022-07-29T11:44:57.413Z,100309.75
2022-07-29T11:48:27.841Z,100305.31
2022-07-29T11:51:32.832Z,100301.78
2022-07-29T11:54:57.137Z,100300.63
2022-07-29T11:58:04.033Z,100299.56
2022-07-29T12:01:07.218Z,100308.00
2022-07-29T12:04:09.776Z,100306.84
2022-07-29T12:07:15.518Z,100296.53
2022-07-29T12:10:19.928Z,100308.25
2022-07-29T12:13:39.972Z,100303.59
2022-07-29T12:16:42.332Z,100299.75
2022-07-29T12:19:46.196Z,100298.16
2022-07-29T12:22:50.206Z,100295.84
2022-07-29T12:25:53.058Z,100292.41
2022-07-29T12:28:56.708Z,100287.41
2022-07-29T12:31:59.423Z,100279.66
2022-07-29T12:35:10.719Z,100267.09
2022-07-29T12:38:14.045Z,100268.66
2022-07-29T12:41:16.469Z,100269.09
2022-07-29T12:44:18.561Z,100255.84
2022-07-29T12:47:21.939Z,100255.59
2022-07-29T12:50:26.567Z,100253.00
2022-07-29T12:53:29.037Z,100249.31
2022-07-29T12:56:42.856Z,100249.53
2022-07-29T13:00:10.941Z,100244.00
2022-07-29T13:03:13.029Z,100247.75
2022-07-29T13:06:35.425Z,100241.38
2022-07-29T13:09:42.534Z,100233.53
2022-07-29T13:13:10.382Z,100237.53
2022-07-29T13:16:12.511Z,100230.78
2022-07-29T13:19:15.107Z,100221.75
2022-07-29T13:22:22.691Z,100219.34
2022-07-29T13:25:30.677Z,100211.25
2022-07-29T13:28:32.739Z,100209.66
2022-07-29T13:31:35.067Z,100210.31
2022-07-29T13:34:37.139Z,100210.50
2022-07-29T13:37:39.693Z,100201.84
2022-07-29T13:40:42.458Z,100191.25
2022-07-29T13:43:44.842Z,100198.94
2022-07-29T13:46:48.298Z,100199.00
2022-07-29T13:49:50.964Z,100197.22
2022-07-29T13:52:53.591Z,100191.66
2022-07-29T13:55:56.244Z,100191.91
2022-07-29T13:58:58.378Z,100193.37
2022-07-29T14:02:01.124Z,100181.72
2022-07-29T14:05:08.038Z,100184.25
2022-07-29T14:08:10.756Z,100178.41
2022-07-29T14:11:13.247Z,100170.81
2022-07-29T14:14:15.333Z,100172.22
2022-07-29T14:17:17.904Z,100172.44
2022-07-29T14:20:20.071Z,100160.22
2022-07-29T14:23:22.437Z,100158.13
2022-07-29T14:26:25.147Z,100160.28
2022-07-29T14:29:37.483Z,100157.94
2022-07-29T14:32:40.669Z,100155.44
